sensor_id;sensor_type;location;lat;lon;timestamp;P1;durP1;ratioP1;P2;durP2;ratioP2
13720;SDS011;6932;51.438;5.470;2022-07-21T00:01:53;7.33;;;5.60;;
13720;SDS011;6932;51.438;5.470;2022-07-21T00:04:20;8.73;;;6.20;;
13720;SDS011;6932;51.438;5.470;2022-07-21T00:06:47;8.87;;;6.07;;
13720;SDS011;6932;51.438;5.470;2022-07-21T00:09:14;9.17;;;6.10;;
13720;SDS011;6932;51.438;5.470;2022-07-21T00:11:40;9.87;;;6.07;;
13720;SDS011;6932;51.438;5.470;2022-07-21T00:14:06;8.90;;;5.97;;
13720;SDS011;6932;51.438;5.470;2022-07-21T00:16:34;9.00;;;6.47;;
13720;SDS011;6932;51.438;5.470;2022-07-21T00:19:01;11.37;;;6.57;;
13720;SDS011;6932;51.438;5.470;2022-07-21T00:21:27;10.00;;;6.50;;
13720;SDS011;6932;51.438;5.470;2022-07-21T00:23:54;9.40;;;6.57;;
13720;SDS011;6932;51.438;5.470;2022-07-21T00:26:20;9.17;;;6.60;;
13720;SDS011;6932;51.438;5.470;2022-07-21T00:28:46;8.63;;;6.33;;
13720;SDS011;6932;51.438;5.470;2022-07-21T00:31:12;9.57;;;6.70;;
13720;SDS011;6932;51.438;5.470;2022-07-21T00:33:38;10.83;;;6.83;;
13720;SDS011;6932;51.438;5.470;2022-07-21T00:36:05;8.63;;;6.40;;
13720;SDS011;6932;51.438;5.470;2022-07-21T00:38:31;8.60;;;6.20;;
13720;SDS011;6932;51.438;5.470;2022-07-21T00:40:57;9.33;;;6.57;;
13720;SDS011;6932;51.438;5.470;2022-07-21T00:43:23;9.33;;;6.33;;
13720;SDS011;6932;51.438;5.470;2022-07-21T00:45:51;12.80;;;6.77;;
13720;SDS011;6932;51.438;5.470;2022-07-21T00:48:18;11.33;;;7.10;;
13720;SDS011;6932;51.438;5.470;2022-07-21T00:50:44;10.20;;;6.70;;
13720;SDS011;6932;51.438;5.470;2022-07-21T00:53:10;10.00;;;7.07;;
13720;SDS011;6932;51.438;5.470;2022-07-21T00:55:36;11.13;;;7.10;;
13720;SDS011;6932;51.438;5.470;2022-07-21T00:58:02;9.63;;;6.80;;
13720;SDS011;6932;51.438;5.470;2022-07-21T01:00:29;10.27;;;6.87;;
13720;SDS011;6932;51.438;5.470;2022-07-21T01:02:57;9.33;;;7.17;;
13720;SDS011;6932;51.438;5.470;2022-07-21T01:05:23;12.10;;;6.67;;
13720;SDS011;6932;51.438;5.470;2022-07-21T01:07:51;9.53;;;6.40;;
13720;SDS011;6932;51.438;5.470;2022-07-21T01:10:23;11.13;;;7.07;;
13720;SDS011;6932;51.438;5.470;2022-07-21T01:12:50;10.40;;;7.07;;
13720;SDS011;6932;51.438;5.470;2022-07-21T01:15:17;10.13;;;7.10;;
13720;SDS011;6932;51.438;5.470;2022-07-21T01:17:44;9.10;;;6.87;;
13720;SDS011;6932;51.438;5.470;2022-07-21T01:20:12;9.33;;;6.60;;
13720;SDS011;6932;51.438;5.470;2022-07-21T01:22:42;11.27;;;7.37;;
13720;SDS011;6932;51.438;5.470;2022-07-21T01:25:11;11.47;;;7.30;;
13720;SDS011;6932;51.438;5.470;2022-07-21T01:27:37;10.60;;;7.47;;
13720;SDS011;6932;51.438;5.470;2022-07-21T01:30:05;12.37;;;7.63;;
13720;SDS011;6932;51.438;5.470;2022-07-21T01:32:34;9.73;;;6.90;;
13720;SDS011;6932;51.438;5.470;2022-07-21T01:35:01;10.33;;;6.90;;
13720;SDS011;6932;51.438;5.470;2022-07-21T01:37:34;10.90;;;7.07;;
13720;SDS011;6932;51.438;5.470;2022-07-21T01:40:05;11.03;;;7.27;;
13720;SDS011;6932;51.438;5.470;2022-07-21T01:42:51;10.07;;;7.33;;
13720;SDS011;6932;51.438;5.470;2022-07-21T01:45:18;9.80;;;6.87;;
13720;SDS011;6932;51.438;5.470;2022-07-21T01:47:45;10.07;;;6.70;;
13720;SDS011;6932;51.438;5.470;2022-07-21T01:50:10;9.53;;;7.00;;
13720;SDS011;6932;51.438;5.470;2022-07-21T01:52:37;10.43;;;7.07;;
13720;SDS011;6932;51.438;5.470;2022-07-21T01:55:03;10.17;;;7.33;;
13720;SDS011;6932;51.438;5.470;2022-07-21T01:57:29;11.03;;;7.60;;
13720;SDS011;6932;51.438;5.470;2022-07-21T01:59:55;10.83;;;7.47;;
13720;SDS011;6932;51.438;5.470;2022-07-21T02:02:21;10.27;;;7.60;;
13720;SDS011;6932;51.438;5.470;2022-07-21T02:04:47;11.07;;;7.60;;
13720;SDS011;6932;51.438;5.470;2022-07-21T02:07:14;10.77;;;7.67;;
13720;SDS011;6932;51.438;5.470;2022-07-21T02:09:40;11.20;;;7.63;;
13720;SDS011;6932;51.438;5.470;2022-07-21T02:12:06;10.77;;;7.37;;
13720;SDS011;6932;51.438;5.470;2022-07-21T02:14:32;12.47;;;8.57;;
13720;SDS011;6932;51.438;5.470;2022-07-21T02:16:58;11.67;;;7.80;;
13720;SDS011;6932;51.438;5.470;2022-07-21T02:19:24;10.20;;;7.43;;
13720;SDS011;6932;51.438;5.470;2022-07-21T02:21:49;9.93;;;7.80;;
13720;SDS011;6932;51.438;5.470;2022-07-21T02:24:15;11.53;;;7.97;;
13720;SDS011;6932;51.438;5.470;2022-07-21T02:26:41;11.47;;;7.37;;
13720;SDS011;6932;51.438;5.470;2022-07-21T02:29:07;10.53;;;7.80;;
13720;SDS011;6932;51.438;5.470;2022-07-21T02:31:33;10.13;;;7.60;;
13720;SDS011;6932;51.438;5.470;2022-07-21T02:33:59;11.20;;;8.10;;
13720;SDS011;6932;51.438;5.470;2022-07-21T02:36:25;10.97;;;7.57;;
13720;SDS011;6932;51.438;5.470;2022-07-21T02:38:51;9.50;;;6.90;;
13720;SDS011;6932;51.438;5.470;2022-07-21T02:41:17;11.97;;;7.80;;
13720;SDS011;6932;51.438;5.470;2022-07-21T02:43:43;10.23;;;7.30;;
13720;SDS011;6932;51.438;5.470;2022-07-21T02:46:08;9.93;;;7.20;;
13720;SDS011;6932;51.438;5.470;2022-07-21T02:48:34;10.67;;;7.47;;
13720;SDS011;6932;51.438;5.470;2022-07-21T02:51:00;11.97;;;8.20;;
13720;SDS011;6932;51.438;5.470;2022-07-21T02:53:26;10.57;;;7.23;;
13720;SDS011;6932;51.438;5.470;2022-07-21T02:55:52;9.40;;;6.77;;
13720;SDS011;6932;51.438;5.470;2022-07-21T02:58:20;10.27;;;7.07;;
13720;SDS011;6932;51.438;5.470;2022-07-21T03:00:49;10.23;;;7.40;;
13720;SDS011;6932;51.438;5.470;2022-07-21T03:03:18;11.20;;;7.37;;
13720;SDS011;6932;51.438;5.470;2022-07-21T03:05:46;11.33;;;7.67;;
13720;SDS011;6932;51.438;5.470;2022-07-21T03:08:12;11.13;;;7.37;;
13720;SDS011;6932;51.438;5.470;2022-07-21T03:10:39;10.57;;;7.37;;
13720;SDS011;6932;51.438;5.470;2022-07-21T03:13:06;10.40;;;6.73;;
13720;SDS011;6932;51.438;5.470;2022-07-21T03:15:33;11.00;;;6.97;;
13720;SDS011;6932;51.438;5.470;2022-07-21T03:17:59;10.83;;;7.53;;
13720;SDS011;6932;51.438;5.470;2022-07-21T03:20:26;10.30;;;6.90;;
13720;SDS011;6932;51.438;5.470;2022-07-21T03:22:55;11.33;;;7.10;;
13720;SDS011;6932;51.438;5.470;2022-07-21T03:25:22;9.87;;;7.10;;
13720;SDS011;6932;51.438;5.470;2022-07-21T03:27:48;9.50;;;6.87;;
13720;SDS011;6932;51.438;5.470;2022-07-21T03:30:16;9.90;;;6.80;;
13720;SDS011;6932;51.438;5.470;2022-07-21T03:32:43;9.77;;;6.87;;
13720;SDS011;6932;51.438;5.470;2022-07-21T03:35:09;11.97;;;7.43;;
13720;SDS011;6932;51.438;5.470;2022-07-21T03:40:33;8.67;;;6.50;;
13720;SDS011;6932;51.438;5.470;2022-07-21T03:43:02;10.50;;;7.07;;
13720;SDS011;6932;51.438;5.470;2022-07-21T03:45:30;10.53;;;6.97;;
13720;SDS011;6932;51.438;5.470;2022-07-21T03:47:58;9.97;;;7.17;;
13720;SDS011;6932;51.438;5.470;2022-07-21T03:50:27;9.53;;;6.70;;
13720;SDS011;6932;51.438;5.470;2022-07-21T03:52:53;10.20;;;6.87;;
13720;SDS011;6932;51.438;5.470;2022-07-21T03:55:19;10.20;;;6.70;;
13720;SDS011;6932;51.438;5.470;2022-07-21T04:00:21;10.90;;;6.67;;
13720;SDS011;6932;51.438;5.470;2022-07-21T04:03:10;9.60;;;6.40;;
13720;SDS011;6932;51.438;5.470;2022-07-21T04:05:37;9.67;;;6.93;;
13720;SDS011;6932;51.438;5.470;2022-07-21T04:08:06;10.83;;;6.93;;
13720;SDS011;6932;51.438;5.470;2022-07-21T04:10:34;9.73;;;6.40;;
13720;SDS011;6932;51.438;5.470;2022-07-21T04:13:02;9.87;;;7.00;;
13720;SDS011;6932;51.438;5.470;2022-07-21T04:15:32;10.53;;;6.50;;
13720;SDS011;6932;51.438;5.470;2022-07-21T04:17:58;9.73;;;6.57;;
13720;SDS011;6932;51.438;5.470;2022-07-21T04:20:24;11.37;;;7.10;;
13720;SDS011;6932;51.438;5.470;2022-07-21T04:22:51;9.77;;;6.50;;
13720;SDS011;6932;51.438;5.470;2022-07-21T04:25:18;10.23;;;6.20;;
13720;SDS011;6932;51.438;5.470;2022-07-21T04:27:45;9.73;;;6.40;;
13720;SDS011;6932;51.438;5.470;2022-07-21T04:30:14;9.87;;;6.30;;
13720;SDS011;6932;51.438;5.470;2022-07-21T04:32:44;8.60;;;6.10;;
13720;SDS011;6932;51.438;5.470;2022-07-21T04:35:10;10.33;;;6.47;;
13720;SDS011;6932;51.438;5.470;2022-07-21T04:37:37;8.23;;;5.70;;
13720;SDS011;6932;51.438;5.470;2022-07-21T04:40:03;10.57;;;6.33;;
13720;SDS011;6932;51.438;5.470;2022-07-21T04:42:32;10.33;;;6.00;;
13720;SDS011;6932;51.438;5.470;2022-07-21T04:44:58;8.80;;;5.80;;
13720;SDS011;6932;51.438;5.470;2022-07-21T04:47:23;8.10;;;5.43;;
13720;SDS011;6932;51.438;5.470;2022-07-21T04:49:49;9.30;;;6.03;;
13720;SDS011;6932;51.438;5.470;2022-07-21T04:52:15;8.57;;;5.80;;
13720;SDS011;6932;51.438;5.470;2022-07-21T04:54:41;9.17;;;5.93;;
13720;SDS011;6932;51.438;5.470;2022-07-21T04:57:06;8.07;;;5.60;;
13720;SDS011;6932;51.438;5.470;2022-07-21T04:59:32;8.30;;;5.43;;
13720;SDS011;6932;51.438;5.470;2022-07-21T05:01:59;10.53;;;5.70;;
13720;SDS011;6932;51.438;5.470;2022-07-21T05:04:26;8.87;;;5.33;;
13720;SDS011;6932;51.438;5.470;2022-07-21T05:06:52;8.80;;;5.50;;
13720;SDS011;6932;51.438;5.470;2022-07-21T05:09:18;8.93;;;5.00;;
13720;SDS011;6932;51.438;5.470;2022-07-21T05:11:44;7.70;;;5.10;;
13720;SDS011;6932;51.438;5.470;2022-07-21T05:14:10;7.17;;;5.10;;
13720;SDS011;6932;51.438;5.470;2022-07-21T05:16:36;9.13;;;5.50;;
13720;SDS011;6932;51.438;5.470;2022-07-21T05:19:02;8.87;;;5.00;;
13720;SDS011;6932;51.438;5.470;2022-07-21T05:21:28;9.37;;;5.17;;
13720;SDS011;6932;51.438;5.470;2022-07-21T05:23:54;8.60;;;5.40;;
13720;SDS011;6932;51.438;5.470;2022-07-21T05:26:20;9.33;;;5.53;;
13720;SDS011;6932;51.438;5.470;2022-07-21T05:28:46;8.53;;;5.33;;
13720;SDS011;6932;51.438;5.470;2022-07-21T05:31:13;8.50;;;5.33;;
13720;SDS011;6932;51.438;5.470;2022-07-21T05:33:39;8.83;;;5.00;;
13720;SDS011;6932;51.438;5.470;2022-07-21T05:36:05;10.20;;;5.53;;
13720;SDS011;6932;51.438;5.470;2022-07-21T05:38:31;8.63;;;5.43;;
13720;SDS011;6932;51.438;5.470;2022-07-21T05:40:57;8.23;;;5.67;;
13720;SDS011;6932;51.438;5.470;2022-07-21T05:43:25;9.43;;;5.57;;
13720;SDS011;6932;51.438;5.470;2022-07-21T05:45:51;9.50;;;5.80;;
13720;SDS011;6932;51.438;5.470;2022-07-21T05:48:17;10.50;;;6.57;;
13720;SDS011;6932;51.438;5.470;2022-07-21T05:50:43;9.33;;;5.70;;
13720;SDS011;6932;51.438;5.470;2022-07-21T05:53:09;12.27;;;6.10;;
13720;SDS011;6932;51.438;5.470;2022-07-21T05:55:34;9.43;;;5.93;;
13720;SDS011;6932;51.438;5.470;2022-07-21T05:58:00;9.57;;;6.10;;
13720;SDS011;6932;51.438;5.470;2022-07-21T06:00:26;11.67;;;6.60;;
13720;SDS011;6932;51.438;5.470;2022-07-21T06:02:52;11.23;;;7.27;;
13720;SDS011;6932;51.438;5.470;2022-07-21T06:05:17;11.00;;;7.00;;
13720;SDS011;6932;51.438;5.470;2022-07-21T06:07:43;9.93;;;6.93;;
13720;SDS011;6932;51.438;5.470;2022-07-21T06:10:09;8.90;;;5.90;;
13720;SDS011;6932;51.438;5.470;2022-07-21T06:12:35;11.50;;;6.93;;
13720;SDS011;6932;51.438;5.470;2022-07-21T06:15:01;10.43;;;6.70;;
13720;SDS011;6932;51.438;5.470;2022-07-21T06:17:27;11.53;;;6.90;;
13720;SDS011;6932;51.438;5.470;2022-07-21T06:19:56;11.03;;;6.93;;
13720;SDS011;6932;51.438;5.470;2022-07-21T06:22:23;13.30;;;7.03;;
13720;SDS011;6932;51.438;5.470;2022-07-21T06:24:49;13.70;;;7.60;;
13720;SDS011;6932;51.438;5.470;2022-07-21T06:27:15;11.07;;;6.80;;
13720;SDS011;6932;51.438;5.470;2022-07-21T06:29:41;12.03;;;7.67;;
13720;SDS011;6932;51.438;5.470;2022-07-21T06:32:06;12.43;;;7.50;;
13720;SDS011;6932;51.438;5.470;2022-07-21T06:34:32;13.73;;;7.87;;
13720;SDS011;6932;51.438;5.470;2022-07-21T06:36:58;12.80;;;7.90;;
13720;SDS011;6932;51.438;5.470;2022-07-21T06:39:24;11.63;;;7.97;;
13720;SDS011;6932;51.438;5.470;2022-07-21T06:41:49;11.93;;;8.13;;
13720;SDS011;6932;51.438;5.470;2022-07-21T06:44:15;10.77;;;7.53;;
13720;SDS011;6932;51.438;5.470;2022-07-21T06:46:41;14.33;;;8.60;;
13720;SDS011;6932;51.438;5.470;2022-07-21T06:49:07;15.27;;;8.53;;
13720;SDS011;6932;51.438;5.470;2022-07-21T06:51:32;13.87;;;8.80;;
13720;SDS011;6932;51.438;5.470;2022-07-21T06:53:58;14.87;;;8.83;;
13720;SDS011;6932;51.438;5.470;2022-07-21T06:56:24;13.40;;;9.00;;
13720;SDS011;6932;51.438;5.470;2022-07-21T06:58:49;12.60;;;8.70;;
13720;SDS011;6932;51.438;5.470;2022-07-21T07:01:15;13.33;;;8.40;;
13720;SDS011;6932;51.438;5.470;2022-07-21T07:03:43;13.93;;;9.20;;
13720;SDS011;6932;51.438;5.470;2022-07-21T07:06:09;12.80;;;8.77;;
13720;SDS011;6932;51.438;5.470;2022-07-21T07:08:36;11.80;;;8.07;;
13720;SDS011;6932;51.438;5.470;2022-07-21T07:11:03;14.27;;;8.87;;
13720;SDS011;6932;51.438;5.470;2022-07-21T07:13:29;12.70;;;8.27;;
13720;SDS011;6932;51.438;5.470;2022-07-21T07:15:56;12.87;;;8.07;;
13720;SDS011;6932;51.438;5.470;2022-07-21T07:18:22;11.80;;;8.17;;
13720;SDS011;6932;51.438;5.470;2022-07-21T07:20:49;11.13;;;7.57;;
13720;SDS011;6932;51.438;5.470;2022-07-21T07:23:15;11.03;;;7.73;;
13720;SDS011;6932;51.438;5.470;2022-07-21T07:25:41;11.90;;;7.97;;
13720;SDS011;6932;51.438;5.470;2022-07-21T07:28:07;11.93;;;8.37;;
13720;SDS011;6932;51.438;5.470;2022-07-21T07:30:33;14.20;;;8.50;;
13720;SDS011;6932;51.438;5.470;2022-07-21T07:33:00;12.63;;;8.30;;
13720;SDS011;6932;51.438;5.470;2022-07-21T07:35:26;12.80;;;8.67;;
13720;SDS011;6932;51.438;5.470;2022-07-21T07:37:52;11.43;;;7.73;;
13720;SDS011;6932;51.438;5.470;2022-07-21T07:40:19;16.20;;;8.47;;
13720;SDS011;6932;51.438;5.470;2022-07-21T07:42:47;13.40;;;8.13;;
13720;SDS011;6932;51.438;5.470;2022-07-21T07:45:13;11.33;;;7.70;;
13720;SDS011;6932;51.438;5.470;2022-07-21T07:47:40;11.57;;;7.23;;
13720;SDS011;6932;51.438;5.470;2022-07-21T07:50:07;11.80;;;7.53;;
13720;SDS011;6932;51.438;5.470;2022-07-21T07:52:36;11.87;;;7.10;;
13720;SDS011;6932;51.438;5.470;2022-07-21T07:55:03;10.53;;;6.83;;
13720;SDS011;6932;51.438;5.470;2022-07-21T07:57:33;9.80;;;6.57;;
13720;SDS011;6932;51.438;5.470;2022-07-21T07:59:59;10.20;;;6.93;;
13720;SDS011;6932;51.438;5.470;2022-07-21T08:02:26;9.77;;;6.43;;
13720;SDS011;6932;51.438;5.470;2022-07-21T08:04:52;10.07;;;6.63;;
13720;SDS011;6932;51.438;5.470;2022-07-21T08:07:18;10.00;;;6.57;;
13720;SDS011;6932;51.438;5.470;2022-07-21T08:09:43;10.23;;;6.53;;
13720;SDS011;6932;51.438;5.470;2022-07-21T08:12:09;9.63;;;6.03;;
13720;SDS011;6932;51.438;5.470;2022-07-21T08:14:36;8.07;;;5.23;;
13720;SDS011;6932;51.438;5.470;2022-07-21T08:17:02;8.40;;;5.47;;
13720;SDS011;6932;51.438;5.470;2022-07-21T08:19:27;7.33;;;4.97;;
13720;SDS011;6932;51.438;5.470;2022-07-21T08:21:53;6.63;;;4.97;;
13720;SDS011;6932;51.438;5.470;2022-07-21T08:24:19;6.73;;;4.40;;
13720;SDS011;6932;51.438;5.470;2022-07-21T08:26:44;5.30;;;3.70;;
13720;SDS011;6932;51.438;5.470;2022-07-21T08:29:11;6.70;;;3.67;;
13720;SDS011;6932;51.438;5.470;2022-07-21T08:31:37;3.70;;;2.90;;
13720;SDS011;6932;51.438;5.470;2022-07-21T08:34:03;3.83;;;2.70;;
13720;SDS011;6932;51.438;5.470;2022-07-21T08:36:28;4.43;;;2.87;;
13720;SDS011;6932;51.438;5.470;2022-07-21T08:38:54;4.63;;;3.23;;
13720;SDS011;6932;51.438;5.470;2022-07-21T08:41:20;5.30;;;3.33;;
13720;SDS011;6932;51.438;5.470;2022-07-21T08:43:46;5.27;;;3.47;;
13720;SDS011;6932;51.438;5.470;2022-07-21T08:46:15;5.07;;;3.80;;
13720;SDS011;6932;51.438;5.470;2022-07-21T08:48:43;5.47;;;4.13;;
13720;SDS011;6932;51.438;5.470;2022-07-21T08:51:09;6.03;;;4.27;;
13720;SDS011;6932;51.438;5.470;2022-07-21T08:53:38;4.80;;;3.90;;
13720;SDS011;6932;51.438;5.470;2022-07-21T08:56:04;6.40;;;4.60;;
13720;SDS011;6932;51.438;5.470;2022-07-21T08:58:30;6.20;;;4.20;;
13720;SDS011;6932;51.438;5.470;2022-07-21T09:00:56;6.03;;;4.50;;
13720;SDS011;6932;51.438;5.470;2022-07-21T09:03:22;6.33;;;4.50;;
13720;SDS011;6932;51.438;5.470;2022-07-21T09:08:41;6.20;;;4.40;;
13720;SDS011;6932;51.438;5.470;2022-07-21T09:11:14;6.83;;;4.50;;
13720;SDS011;6932;51.438;5.470;2022-07-21T09:13:44;4.90;;;3.93;;
13720;SDS011;6932;51.438;5.470;2022-07-21T09:16:23;5.70;;;4.27;;
13720;SDS011;6932;51.438;5.470;2022-07-21T09:19:02;5.10;;;3.67;;
13720;SDS011;6932;51.438;5.470;2022-07-21T09:21:30;5.10;;;3.53;;
13720;SDS011;6932;51.438;5.470;2022-07-21T09:24:14;5.33;;;3.70;;
13720;SDS011;6932;51.438;5.470;2022-07-21T09:27:03;3.90;;;3.30;;
13720;SDS011;6932;51.438;5.470;2022-07-21T09:32:27;4.50;;;3.20;;
13720;SDS011;6932;51.438;5.470;2022-07-21T09:34:59;5.13;;;3.27;;
13720;SDS011;6932;51.438;5.470;2022-07-21T09:37:35;4.73;;;3.23;;
13720;SDS011;6932;51.438;5.470;2022-07-21T09:40:04;3.83;;;3.00;;
13720;SDS011;6932;51.438;5.470;2022-07-21T09:42:34;3.87;;;3.20;;
13720;SDS011;6932;51.438;5.470;2022-07-21T09:45:04;3.93;;;3.30;;
13720;SDS011;6932;51.438;5.470;2022-07-21T09:47:45;3.33;;;2.70;;
13720;SDS011;6932;51.438;5.470;2022-07-21T09:50:12;3.67;;;2.70;;
13720;SDS011;6932;51.438;5.470;2022-07-21T09:52:42;3.53;;;2.90;;
13720;SDS011;6932;51.438;5.470;2022-07-21T09:55:10;3.13;;;2.70;;
13720;SDS011;6932;51.438;5.470;2022-07-21T09:57:40;3.53;;;2.70;;
13720;SDS011;6932;51.438;5.470;2022-07-21T10:00:08;3.60;;;2.87;;
13720;SDS011;6932;51.438;5.470;2022-07-21T10:02:37;4.33;;;3.00;;
13720;SDS011;6932;51.438;5.470;2022-07-21T10:05:05;3.47;;;2.97;;
13720;SDS011;6932;51.438;5.470;2022-07-21T10:07:52;3.93;;;3.17;;
13720;SDS011;6932;51.438;5.470;2022-07-21T10:10:18;4.70;;;3.30;;
13720;SDS011;6932;51.438;5.470;2022-07-21T10:12:44;4.67;;;3.10;;
13720;SDS011;6932;51.438;5.470;2022-07-21T10:15:11;4.17;;;3.17;;
13720;SDS011;6932;51.438;5.470;2022-07-21T10:17:37;4.60;;;3.20;;
13720;SDS011;6932;51.438;5.470;2022-07-21T10:25:36;5.47;;;2.90;;
13720;SDS011;6932;51.438;5.470;2022-07-21T10:30:51;4.40;;;3.00;;
13720;SDS011;6932;51.438;5.470;2022-07-21T10:33:21;4.13;;;3.00;;
13720;SDS011;6932;51.438;5.470;2022-07-21T10:36:10;5.83;;;3.27;;
13720;SDS011;6932;51.438;5.470;2022-07-21T10:39:20;4.33;;;3.40;;
13720;SDS011;6932;51.438;5.470;2022-07-21T10:41:52;3.87;;;3.03;;
13720;SDS011;6932;51.438;5.470;2022-07-21T10:47:09;4.43;;;3.33;;
13720;SDS011;6932;51.438;5.470;2022-07-21T10:57:41;6.13;;;4.10;;
13720;SDS011;6932;51.438;5.470;2022-07-21T11:00:17;5.70;;;4.00;;
13720;SDS011;6932;51.438;5.470;2022-07-21T11:02:49;4.73;;;3.80;;
13720;SDS011;6932;51.438;5.470;2022-07-21T11:05:25;6.03;;;3.83;;
13720;SDS011;6932;51.438;5.470;2022-07-21T11:08:10;6.87;;;4.30;;
13720;SDS011;6932;51.438;5.470;2022-07-21T11:10:49;6.47;;;3.70;;
13720;SDS011;6932;51.438;5.470;2022-07-21T11:13:19;7.00;;;4.10;;
13720;SDS011;6932;51.438;5.470;2022-07-21T11:18:20;5.00;;;4.00;;
13720;SDS011;6932;51.438;5.470;2022-07-21T11:23:43;5.67;;;4.10;;
13720;SDS011;6932;51.438;5.470;2022-07-21T11:26:15;5.17;;;4.00;;
13720;SDS011;6932;51.438;5.470;2022-07-21T11:28:48;5.73;;;3.93;;
13720;SDS011;6932;51.438;5.470;2022-07-21T11:31:31;5.43;;;3.53;;
13720;SDS011;6932;51.438;5.470;2022-07-21T11:34:09;5.70;;;3.50;;
13720;SDS011;6932;51.438;5.470;2022-07-21T11:36:35;5.00;;;3.60;;
13720;SDS011;6932;51.438;5.470;2022-07-21T11:39:03;5.67;;;3.50;;
13720;SDS011;6932;51.438;5.470;2022-07-21T11:41:35;7.07;;;3.93;;
13720;SDS011;6932;51.438;5.470;2022-07-21T11:44:04;4.93;;;3.30;;
13720;SDS011;6932;51.438;5.470;2022-07-21T11:46:45;5.30;;;3.30;;
13720;SDS011;6932;51.438;5.470;2022-07-21T11:49:14;7.20;;;3.77;;
13720;SDS011;6932;51.438;5.470;2022-07-21T11:51:45;4.77;;;3.47;;
13720;SDS011;6932;51.438;5.470;2022-07-21T11:54:21;6.13;;;3.43;;
13720;SDS011;6932;51.438;5.470;2022-07-21T11:57:00;4.73;;;3.40;;
13720;SDS011;6932;51.438;5.470;2022-07-21T11:59:30;6.93;;;3.70;;
13720;SDS011;6932;51.438;5.470;2022-07-21T12:04:29;4.43;;;3.10;;
13720;SDS011;6932;51.438;5.470;2022-07-21T12:07:26;3.97;;;3.03;;
13720;SDS011;6932;51.438;5.470;2022-07-21T12:09:57;4.90;;;3.17;;
13720;SDS011;6932;51.438;5.470;2022-07-21T12:12:47;4.57;;;3.10;;
13720;SDS011;6932;51.438;5.470;2022-07-21T12:15:16;4.50;;;3.00;;
13720;SDS011;6932;51.438;5.470;2022-07-21T12:17:55;3.37;;;2.60;;
13720;SDS011;6932;51.438;5.470;2022-07-21T12:20:33;4.10;;;2.80;;
13720;SDS011;6932;51.438;5.470;2022-07-21T12:25:50;4.97;;;2.90;;
13720;SDS011;6932;51.438;5.470;2022-07-21T12:28:17;4.67;;;2.90;;
13720;SDS011;6932;51.438;5.470;2022-07-21T12:30:47;2.80;;;2.50;;
13720;SDS011;6932;51.438;5.470;2022-07-21T12:33:16;4.50;;;2.70;;
13720;SDS011;6932;51.438;5.470;2022-07-21T12:35:56;3.13;;;2.70;;
13720;SDS011;6932;51.438;5.470;2022-07-21T12:38:22;3.03;;;2.40;;
13720;SDS011;6932;51.438;5.470;2022-07-21T12:41:15;4.20;;;2.67;;
13720;SDS011;6932;51.438;5.470;2022-07-21T12:43:53;3.27;;;2.67;;
13720;SDS011;6932;51.438;5.470;2022-07-21T12:46:30;3.47;;;2.73;;
13720;SDS011;6932;51.438;5.470;2022-07-21T12:49:07;5.17;;;3.20;;
13720;SDS011;6932;51.438;5.470;2022-07-21T12:51:35;2.97;;;2.40;;
13720;SDS011;6932;51.438;5.470;2022-07-21T12:54:01;3.67;;;2.50;;
13720;SDS011;6932;51.438;5.470;2022-07-21T12:56:31;4.47;;;2.80;;
13720;SDS011;6932;51.438;5.470;2022-07-21T12:58:59;4.27;;;2.93;;
13720;SDS011;6932;51.438;5.470;2022-07-21T13:01:26;4.03;;;2.40;;
13720;SDS011;6932;51.438;5.470;2022-07-21T13:03:56;2.70;;;2.30;;
13720;SDS011;6932;51.438;5.470;2022-07-21T13:06:21;2.70;;;2.30;;
13720;SDS011;6932;51.438;5.470;2022-07-21T13:08:47;2.37;;;2.17;;
13720;SDS011;6932;51.438;5.470;2022-07-21T13:11:16;2.57;;;2.10;;
13720;SDS011;6932;51.438;5.470;2022-07-21T13:13:45;2.20;;;2.00;;
13720;SDS011;6932;51.438;5.470;2022-07-21T13:16:12;3.77;;;2.20;;
13720;SDS011;6932;51.438;5.470;2022-07-21T13:18:39;2.80;;;2.07;;
13720;SDS011;6932;51.438;5.470;2022-07-21T13:21:05;3.70;;;2.17;;
13720;SDS011;6932;51.438;5.470;2022-07-21T13:23:31;2.80;;;2.23;;
13720;SDS011;6932;51.438;5.470;2022-07-21T13:25:57;3.07;;;2.30;;
13720;SDS011;6932;51.438;5.470;2022-07-21T13:28:22;2.67;;;2.00;;
13720;SDS011;6932;51.438;5.470;2022-07-21T13:30:48;3.33;;;1.90;;
13720;SDS011;6932;51.438;5.470;2022-07-21T13:33:14;2.40;;;2.00;;
13720;SDS011;6932;51.438;5.470;2022-07-21T13:35:41;4.43;;;2.47;;
13720;SDS011;6932;51.438;5.470;2022-07-21T13:38:08;2.43;;;1.80;;
13720;SDS011;6932;51.438;5.470;2022-07-21T13:40:35;2.83;;;2.00;;
13720;SDS011;6932;51.438;5.470;2022-07-21T13:43:02;2.27;;;1.80;;
13720;SDS011;6932;51.438;5.470;2022-07-21T13:45:29;2.80;;;1.90;;
13720;SDS011;6932;51.438;5.470;2022-07-21T13:47:55;2.43;;;1.90;;
13720;SDS011;6932;51.438;5.470;2022-07-21T13:50:21;3.80;;;1.93;;
13720;SDS011;6932;51.438;5.470;2022-07-21T13:52:46;2.90;;;1.97;;
13720;SDS011;6932;51.438;5.470;2022-07-21T13:55:12;3.67;;;2.20;;
13720;SDS011;6932;51.438;5.470;2022-07-21T13:57:38;2.00;;;1.80;;
13720;SDS011;6932;51.438;5.470;2022-07-21T14:00:05;2.67;;;2.10;;
13720;SDS011;6932;51.438;5.470;2022-07-21T14:02:34;3.93;;;2.10;;
13720;SDS011;6932;51.438;5.470;2022-07-21T14:05:01;4.23;;;1.90;;
13720;SDS011;6932;51.438;5.470;2022-07-21T14:07:28;3.60;;;2.10;;
13720;SDS011;6932;51.438;5.470;2022-07-21T14:09:55;3.47;;;2.20;;
13720;SDS011;6932;51.438;5.470;2022-07-21T14:12:21;2.80;;;2.00;;
13720;SDS011;6932;51.438;5.470;2022-07-21T14:14:46;2.97;;;2.17;;
13720;SDS011;6932;51.438;5.470;2022-07-21T14:17:13;5.77;;;2.50;;
13720;SDS011;6932;51.438;5.470;2022-07-21T14:19:41;3.07;;;1.87;;
13720;SDS011;6932;51.438;5.470;2022-07-21T14:22:08;4.33;;;2.20;;
13720;SDS011;6932;51.438;5.470;2022-07-21T14:24:38;5.40;;;2.20;;
13720;SDS011;6932;51.438;5.470;2022-07-21T14:27:22;3.80;;;2.37;;
13720;SDS011;6932;51.438;5.470;2022-07-21T14:29:48;4.90;;;2.17;;
13720;SDS011;6932;51.438;5.470;2022-07-21T14:32:16;3.40;;;2.40;;
13720;SDS011;6932;51.438;5.470;2022-07-21T14:34:47;4.57;;;2.30;;
13720;SDS011;6932;51.438;5.470;2022-07-21T14:37:17;4.87;;;2.40;;
13720;SDS011;6932;51.438;5.470;2022-07-21T14:39:44;5.13;;;2.50;;
13720;SDS011;6932;51.438;5.470;2022-07-21T14:42:14;3.63;;;2.40;;
13720;SDS011;6932;51.438;5.470;2022-07-21T14:44:41;3.47;;;2.23;;
13720;SDS011;6932;51.438;5.470;2022-07-21T14:47:07;4.93;;;2.50;;
13720;SDS011;6932;51.438;5.470;2022-07-21T14:49:34;4.57;;;2.30;;
13720;SDS011;6932;51.438;5.470;2022-07-21T14:52:01;4.70;;;2.27;;
13720;SDS011;6932;51.438;5.470;2022-07-21T14:54:27;4.00;;;2.40;;
13720;SDS011;6932;51.438;5.470;2022-07-21T14:56:53;3.43;;;2.10;;
13720;SDS011;6932;51.438;5.470;2022-07-21T14:59:19;5.13;;;2.13;;
13720;SDS011;6932;51.438;5.470;2022-07-21T15:01:44;3.97;;;2.20;;
13720;SDS011;6932;51.438;5.470;2022-07-21T15:04:10;3.40;;;2.20;;
13720;SDS011;6932;51.438;5.470;2022-07-21T15:06:36;6.27;;;1.97;;
13720;SDS011;6932;51.438;5.470;2022-07-21T15:09:02;5.23;;;2.10;;
13720;SDS011;6932;51.438;5.470;2022-07-21T15:11:28;3.80;;;2.20;;
13720;SDS011;6932;51.438;5.470;2022-07-21T15:13:54;4.53;;;2.30;;
13720;SDS011;6932;51.438;5.470;2022-07-21T15:16:19;4.00;;;2.10;;
13720;SDS011;6932;51.438;5.470;2022-07-21T15:18:45;4.37;;;2.03;;
13720;SDS011;6932;51.438;5.470;2022-07-21T15:21:12;3.57;;;2.10;;
13720;SDS011;6932;51.438;5.470;2022-07-21T15:23:38;5.07;;;2.20;;
13720;SDS011;6932;51.438;5.470;2022-07-21T15:26:04;3.70;;;2.10;;
13720;SDS011;6932;51.438;5.470;2022-07-21T15:28:30;3.93;;;2.30;;
13720;SDS011;6932;51.438;5.470;2022-07-21T15:30:55;3.53;;;2.00;;
13720;SDS011;6932;51.438;5.470;2022-07-21T15:33:21;4.17;;;2.30;;
13720;SDS011;6932;51.438;5.470;2022-07-21T15:35:47;3.37;;;2.10;;
13720;SDS011;6932;51.438;5.470;2022-07-21T15:38:16;4.93;;;2.30;;
13720;SDS011;6932;51.438;5.470;2022-07-21T15:40:42;5.27;;;2.60;;
13720;SDS011;6932;51.438;5.470;2022-07-21T15:43:07;3.80;;;2.73;;
13720;SDS011;6932;51.438;5.470;2022-07-21T15:45:33;4.07;;;2.50;;